Time;durP1;ratioP1;P1;durP2;ratioP2;P2;SDS_P1;SDS_P2;PMS_P1;PMS_P2;Temp;Humidity;BMP_temperature;BMP_pressure;BME280_temperature;BME280_humidity;BME280_pressure;Samples;Min_cycle;Max_cycle;Signal;HPM_P1;HPM_P2
2023/11/18 00:01:34;;;;;;;26.00;14.40;;;4.50;1.00;;;;;;5058419;28;20621;-86
2023/11/18 00:04:01;;;;;;;24.33;15.03;;;4.70;1.00;;;;;;5074561;28;20242;-84
2023/11/18 00:06:28;;;;;;;26.70;15.57;;;4.80;1.00;;;;;;5074275;28;20230;-84
2023/11/18 00:08:55;;;;;;;23.87;16.43;;;5.00;54.40;;;;;;5055803;28;20226;-84
2023/11/18 00:11:23;;;;;;;24.60;15.30;;;5.10;80.10;;;;;;5056018;28;20211;-83
2023/11/18 00:13:50;;;;;;;25.70;15.73;;;5.00;64.50;;;;;;5061685;28;20206;-84
2023/11/18 00:16:17;;;;;;;24.47;15.67;;;5.10;99.90;;;;;;5076187;28;20224;-83
2023/11/18 00:18:44;;;;;;;23.57;14.90;;;5.10;99.90;;;;;;5076451;28;20228;-84
2023/11/18 00:21:11;;;;;;;26.43;16.40;;;5.10;96.30;;;;;;5076425;28;20636;-83
2023/11/18 00:23:38;;;;;;;28.40;16.20;;;5.10;99.90;;;;;;5075125;28;20209;-83
2023/11/18 00:26:07;;;;;;;25.07;16.20;;;5.00;99.90;;;;;;5076031;28;20288;-84
2023/11/18 00:28:35;;;;;;;22.50;14.97;;;5.10;99.90;;;;;;5076191;28;20256;-83
2023/11/18 00:31:04;;;;;;;24.30;15.13;;;5.00;45.00;;;;;;5075850;28;20198;-83
2023/11/18 00:33:30;;;;;;;25.40;15.90;;;5.00;75.90;;;;;;5076156;28;20210;-83
2023/11/18 00:35:57;;;;;;;26.50;15.17;;;4.90;8.40;;;;;;5076315;28;20222;-83
2023/11/18 00:38:24;;;;;;;23.23;16.07;;;5.00;99.90;;;;;;5056700;28;20226;-84
2023/11/18 00:40:52;;;;;;;24.97;15.63;;;5.00;99.90;;;;;;5055540;28;20577;-83
2023/11/18 00:43:19;;;;;;;21.87;14.37;;;5.00;99.90;;;;;;5054722;28;20290;-84
2023/11/18 00:45:48;;;;;;;25.77;16.10;;;5.00;99.90;;;;;;5055209;28;20203;-84
2023/11/18 00:48:15;;;;;;;24.53;16.17;;;5.00;99.90;;;;;;5055285;28;20229;-84
2023/11/18 00:50:42;;;;;;;24.20;15.73;;;5.10;99.90;;;;;;5055339;28;20289;-85
2023/11/18 00:53:09;;;;;;;23.23;15.97;;;5.10;99.90;;;;;;5060033;28;20198;-83
2023/11/18 00:55:37;;;;;;;24.93;15.03;;;5.20;99.90;;;;;;5075112;28;20229;-84
2023/11/18 00:58:04;;;;;;;25.90;16.30;;;5.20;99.90;;;;;;5075391;28;20697;-83
2023/11/18 01:00:31;;;;;;;25.93;17.03;;;5.20;99.90;;;;;;5074018;28;20629;-83
2023/11/18 01:03:00;;;;;;;29.43;17.17;;;5.20;99.90;;;;;;5075007;28;20198;-84
2023/11/18 01:05:27;;;;;;;24.57;15.93;;;5.30;99.90;;;;;;5076205;28;20198;-84
2023/11/18 01:07:54;;;;;;;26.03;16.87;;;5.10;99.90;;;;;;5075325;28;20227;-83
2023/11/18 01:10:21;;;;;;;25.43;16.23;;;5.10;99.90;;;;;;5074813;28;20199;-85
2023/11/18 01:12:49;;;;;;;26.60;16.57;;;5.10;99.90;;;;;;5075453;28;20637;-84
2023/11/18 01:15:16;;;;;;;24.43;15.97;;;5.00;99.90;;;;;;5056629;28;20280;-83
2023/11/18 01:17:44;;;;;;;25.33;16.77;;;5.00;99.90;;;;;;5054023;28;20226;-83
2023/11/18 01:20:13;;;;;;;25.60;15.77;;;5.10;99.90;;;;;;5055417;28;20598;-83
2023/11/18 01:22:41;;;;;;;26.97;16.17;;;5.00;99.90;;;;;;5056146;28;20230;-83
2023/11/18 01:25:09;;;;;;;25.07;15.73;;;5.00;99.90;;;;;;5055080;28;20281;-82
2023/11/18 01:27:36;;;;;;;24.10;16.03;;;5.00;99.90;;;;;;5055175;28;20219;-83
2023/11/18 01:30:04;;;;;;;26.57;16.37;;;5.00;99.90;;;;;;5069587;28;20595;-82
2023/11/18 01:32:31;;;;;;;25.17;16.23;;;5.00;99.90;;;;;;5075160;28;20202;-83
2023/11/18 01:34:58;;;;;;;25.53;16.67;;;5.00;99.90;;;;;;5075224;28;20305;-83
2023/11/18 01:37:26;;;;;;;27.80;16.67;;;5.00;99.90;;;;;;5074654;28;20238;-83
2023/11/18 01:39:53;;;;;;;25.33;16.23;;;5.00;99.90;;;;;;5070672;28;20217;-82
2023/11/18 01:42:20;;;;;;;27.10;16.47;;;5.00;99.90;;;;;;5056995;28;20591;-82
2023/11/18 01:44:48;;;;;;;26.73;16.90;;;5.10;99.90;;;;;;5059598;28;20550;-83
2023/11/18 01:47:16;;;;;;;27.87;17.87;;;5.10;99.90;;;;;;5059471;28;20230;-83
2023/11/18 01:49:43;;;;;;;26.37;16.60;;;5.10;99.90;;;;;;5059622;28;20211;-82
2023/11/18 01:52:11;;;;;;;27.53;16.87;;;5.10;99.90;;;;;;5058715;28;20688;-82
2023/11/18 01:54:42;;;;;;;26.33;16.50;;;5.00;99.90;;;;;;5071437;28;20304;-82
2023/11/18 01:57:09;;;;;;;29.00;16.70;;;5.10;99.90;;;;;;5078749;28;20230;-83
2023/11/18 01:59:37;;;;;;;26.17;16.83;;;5.10;99.90;;;;;;5078454;28;20206;-82
2023/11/18 02:02:06;;;;;;;27.57;17.17;;;5.10;99.90;;;;;;5078303;28;20208;-81
2023/11/18 02:04:33;;;;;;;28.67;17.93;;;5.20;99.90;;;;;;5080209;28;20316;-82
2023/11/18 02:07:03;;;;;;;30.10;17.90;;;5.20;99.90;;;;;;5080077;28;20218;-83
2023/11/18 02:09:31;;;;;;;27.80;17.83;;;5.30;99.90;;;;;;5079616;28;20203;-82
2023/11/18 02:12:09;;;;;;;27.67;18.60;;;5.30;99.90;;;;;;5078824;28;20214;-82
2023/11/18 02:14:41;;;;;;;28.03;18.60;;;5.30;99.90;;;;;;5078266;28;20256;-82
2023/11/18 02:17:10;;;;;;;30.73;19.40;;;5.30;99.90;;;;;;5072344;28;20239;-83
2023/11/18 02:19:39;;;;;;;30.40;19.27;;;5.30;99.90;;;;;;5058809;28;20694;-83
2023/11/18 02:22:08;;;;;;;34.17;20.20;;;5.40;99.90;;;;;;5058716;28;20199;-82
2023/11/18 02:24:37;;;;;;;30.47;19.63;;;5.30;99.90;;;;;;5059106;28;20209;-82
2023/11/18 02:27:07;;;;;;;31.80;19.27;;;5.40;99.90;;;;;;5059094;28;20223;-83
2023/11/18 02:29:36;;;;;;;30.80;20.00;;;5.40;99.90;;;;;;5059140;28;20666;-83
2023/11/18 02:32:14;;;;;;;32.20;19.93;;;5.40;99.90;;;;;;5057498;28;20207;-83
2023/11/18 02:34:51;;;;;;;28.77;19.17;;;5.40;99.90;;;;;;5058665;28;20194;-83
2023/11/18 02:37:18;;;;;;;31.33;21.10;;;5.50;99.90;;;;;;5065619;28;20226;-82
2023/11/18 02:39:49;;;;;;;31.60;19.83;;;5.50;99.90;;;;;;5078436;28;20210;-83
2023/11/18 02:42:18;;;;;;;34.80;22.60;;;5.50;99.90;;;;;;5076938;28;20210;-83
2023/11/18 02:44:45;;;;;;;33.70;21.03;;;5.50;99.90;;;;;;5078574;28;20210;-82
2023/11/18 02:47:12;;;;;;;31.80;21.10;;;5.60;99.90;;;;;;5078727;28;20230;-82
2023/11/18 02:49:39;;;;;;;34.80;21.60;;;5.60;99.90;;;;;;5078081;28;20206;-82
2023/11/18 02:52:06;;;;;;;31.37;21.50;;;5.50;99.90;;;;;;5078103;28;20501;-82
2023/11/18 02:54:34;;;;;;;33.70;20.27;;;5.60;99.90;;;;;;5076364;28;20202;-82
2023/11/18 02:57:01;;;;;;;32.77;20.17;;;5.60;99.90;;;;;;5058896;28;20230;-81
2023/11/18 02:59:30;;;;;;;31.80;20.77;;;5.50;99.90;;;;;;5058534;28;20211;-82
2023/11/18 03:01:57;;;;;;;35.70;20.63;;;5.40;99.90;;;;;;5058422;28;20199;-82
2023/11/18 03:04:24;;;;;;;32.63;20.27;;;5.40;99.90;;;;;;5059181;28;20221;-82
2023/11/18 03:06:51;;;;;;;33.67;19.43;;;5.50;99.90;;;;;;5058578;28;20219;-83
2023/11/18 03:09:18;;;;;;;30.87;20.23;;;5.40;99.90;;;;;;5075106;28;20237;-82
2023/11/18 03:11:45;;;;;;;34.17;19.90;;;5.40;99.90;;;;;;5078060;28;20587;-83
2023/11/18 03:14:12;;;;;;;30.13;19.77;;;5.40;99.90;;;;;;5079067;28;20205;-83
2023/11/18 03:16:41;;;;;;;31.10;19.83;;;5.40;99.90;;;;;;5077361;28;20226;-82
2023/11/18 03:19:08;;;;;;;30.07;19.27;;;5.40;99.90;;;;;;5070159;28;20207;-83
2023/11/18 03:21:36;;;;;;;32.17;20.20;;;5.40;99.90;;;;;;5057184;28;20837;-83
2023/11/18 03:24:03;;;;;;;33.33;20.33;;;5.50;99.90;;;;;;5062452;28;20202;-83
2023/11/18 03:26:31;;;;;;;34.30;20.43;;;5.50;99.90;;;;;;5076427;28;20606;-82
2023/11/18 03:28:58;;;;;;;34.70;21.13;;;5.50;99.90;;;;;;5071340;28;20198;-83
2023/11/18 03:31:26;;;;;;;32.23;19.97;;;5.40;99.90;;;;;;5068587;28;20218;-83
2023/11/18 03:33:54;;;;;;;36.93;21.00;;;5.50;99.90;;;;;;5077915;28;20206;-83
2023/11/18 03:36:21;;;;;;;34.07;20.60;;;5.50;99.90;;;;;;5077810;28;20218;-83
2023/11/18 03:38:49;;;;;;;35.57;21.40;;;5.50;99.90;;;;;;5078473;28;20297;-82
2023/11/18 03:41:16;;;;;;;30.23;20.40;;;5.60;99.90;;;;;;5076305;28;20209;-81
2023/11/18 03:43:43;;;;;;;35.63;21.00;;;5.50;99.90;;;;;;5077766;28;20202;-82
2023/11/18 03:46:10;;;;;;;31.57;19.57;;;5.50;99.90;;;;;;5076647;28;20206;-83
2023/11/18 03:48:37;;;;;;;33.27;20.30;;;5.50;99.90;;;;;;5078247;28;20237;-83
2023/11/18 03:51:06;;;;;;;32.83;20.27;;;5.50;99.90;;;;;;5078367;28;20202;-82
2023/11/18 03:53:34;;;;;;;34.10;20.77;;;5.50;99.90;;;;;;5077971;28;20228;-83
2023/11/18 03:56:02;;;;;;;32.60;20.00;;;5.50;99.90;;;;;;5077441;28;20217;-82
2023/11/18 03:58:29;;;;;;;31.73;19.93;;;5.50;99.90;;;;;;5077060;28;20610;-83
2023/11/18 04:00:57;;;;;;;36.67;21.20;;;5.70;99.90;;;;;;5068614;28;20196;-83
2023/11/18 04:03:24;;;;;;;35.57;20.70;;;5.80;67.70;;;;;;5076560;28;20676;-83
2023/11/18 04:05:51;;;;;;;35.30;19.90;;;5.50;91.80;;;;;;5072261;28;20198;-83
2023/11/18 04:08:21;;;;;;;37.40;21.13;;;5.70;71.40;;;;;;5057784;28;20227;-83
2023/11/18 04:10:48;;;;;;;34.17;19.47;;;5.50;13.10;;;;;;5061451;28;20658;-83
2023/11/18 04:13:14;;;;;;;37.30;20.33;;;5.50;3.00;;;;;;5077634;28;20201;-82
2023/11/18 04:15:41;;;;;;;37.17;20.80;;;5.50;1.00;;;;;;5077002;28;20224;-82
2023/11/18 04:18:08;;;;;;;34.10;20.20;;;5.50;1.00;;;;;;5071761;28;20572;-83
2023/11/18 04:20:36;;;;;;;34.27;19.30;;;5.50;1.00;;;;;;5056997;28;20203;-82
2023/11/18 04:23:04;;;;;;;38.93;20.73;;;5.50;1.00;;;;;;5057067;28;20260;-83
2023/11/18 04:25:33;;;;;;;38.03;21.93;;;5.50;1.00;;;;;;5066775;28;20640;-83
2023/11/18 04:28:00;;;;;;;33.93;20.43;;;5.50;1.00;;;;;;5076583;28;20222;-83
2023/11/18 04:30:26;;;;;;;37.40;19.87;;;5.40;1.00;;;;;;5071685;28;20567;-83
2023/11/18 04:32:53;;;;;;;35.10;20.20;;;5.50;1.00;;;;;;5077172;28;20198;-83
2023/11/18 04:35:22;;;;;;;34.43;20.57;;;5.40;1.00;;;;;;5076709;28;20261;-82
2023/11/18 04:37:49;;;;;;;39.97;21.77;;;5.40;1.00;;;;;;5076545;28;20705;-84
2023/11/18 04:40:16;;;;;;;34.33;19.83;;;5.30;1.00;;;;;;5075897;28;20212;-84
2023/11/18 04:42:44;;;;;;;36.07;20.37;;;5.30;1.00;;;;;;5075333;28;20293;-84
2023/11/18 04:45:11;;;;;;;35.10;19.90;;;5.20;1.00;;;;;;5076687;28;20256;-90
2023/11/18 04:47:41;;;;;;;36.40;21.23;;;5.20;1.00;;;;;;5076456;28;20222;-84
2023/11/18 04:50:09;;;;;;;39.03;20.60;;;5.20;1.00;;;;;;5076708;28;20655;-84
2023/11/18 04:52:37;;;;;;;43.73;23.60;;;5.20;1.00;;;;;;5066775;28;20225;-85
2023/11/18 04:55:06;;;;;;;36.93;21.27;;;5.10;1.00;;;;;;5055949;28;20203;-83
2023/11/18 04:57:34;;;;;;;36.80;20.57;;;5.10;1.00;;;;;;5074911;28;20233;-83
2023/11/18 05:00:10;;;;;;;36.97;20.43;;;5.10;1.00;;;;;;5075379;28;20662;-84
2023/11/18 05:02:37;;;;;;;40.10;20.93;;;5.10;1.00;;;;;;5075369;28;20301;-84
2023/11/18 05:05:05;;;;;;;34.37;20.33;;;5.00;1.00;;;;;;5077370;28;20641;-82
2023/11/18 05:07:32;;;;;;;38.10;21.23;;;5.00;1.00;;;;;;5077786;28;20244;-83
2023/11/18 05:10:00;;;;;;;37.70;21.50;;;5.00;1.00;;;;;;5077643;28;20205;-85
2023/11/18 05:12:29;;;;;;;41.47;22.37;;;4.90;5.20;;;;;;5077347;28;20743;-84
2023/11/18 05:14:56;;;;;;;45.47;22.50;;;4.90;31.80;;;;;;5078812;28;20247;-81
2023/11/18 05:17:25;;;;;;;45.47;23.67;;;4.90;32.90;;;;;;5095974;28;20265;-83
2023/11/18 05:19:53;;;;;;;41.10;20.80;;;4.90;59.70;;;;;;5082036;28;20209;-83
2023/11/18 05:22:20;;;;;;;41.57;22.03;;;5.00;49.20;;;;;;5074059;28;20314;-83
2023/11/18 05:24:47;;;;;;;44.00;23.43;;;4.90;97.30;;;;;;5056499;28;20206;-82
2023/11/18 05:27:17;;;;;;;42.13;21.50;;;4.90;99.90;;;;;;5060949;28;20210;-83
2023/11/18 05:29:45;;;;;;;41.57;21.03;;;5.00;99.90;;;;;;5075376;28;20198;-81
2023/11/18 05:32:11;;;;;;;40.93;21.53;;;5.00;99.90;;;;;;5059228;28;20207;-83
2023/11/18 05:34:40;;;;;;;41.27;21.43;;;5.00;99.90;;;;;;5053176;28;20206;-83
2023/11/18 05:37:07;;;;;;;44.03;23.13;;;5.00;99.90;;;;;;5056608;28;20230;-81
2023/11/18 05:39:41;;;;;;;42.90;22.23;;;5.00;99.90;;;;;;5056998;28;20198;-82
2023/11/18 05:42:10;;;;;;;40.60;20.87;;;5.00;69.40;;;;;;5056906;28;20201;-82
2023/11/18 05:44:39;;;;;;;41.37;21.33;;;4.90;13.70;;;;;;5067322;28;20666;-83
2023/11/18 05:47:06;;;;;;;45.93;23.00;;;4.80;33.00;;;;;;5076289;28;20214;-82
2023/11/18 05:49:33;;;;;;;45.87;22.13;;;4.80;70.50;;;;;;5076151;28;20289;-82
2023/11/18 05:52:01;;;;;;;42.57;21.20;;;4.80;89.10;;;;;;5076466;28;20198;-82
2023/11/18 05:54:28;;;;;;;42.13;21.13;;;4.70;40.50;;;;;;5059780;28;20205;-82
2023/11/18 05:56:55;;;;;;;42.73;21.63;;;4.60;3.00;;;;;;5074439;28;20232;-81
2023/11/18 05:59:23;;;;;;;41.43;23.77;;;4.60;4.60;;;;;;5075199;28;20207;-82
2023/11/18 06:01:50;;;;;;;39.07;20.40;;;4.40;1.00;;;;;;5072953;28;20622;-83
2023/11/18 06:04:17;;;;;;;41.43;21.80;;;4.30;1.00;;;;;;5075086;28;20202;-82
2023/11/18 06:06:44;;;;;;;47.60;25.73;;;4.20;1.00;;;;;;5074988;28;20218;-83
2023/11/18 06:09:20;;;;;;;41.97;21.83;;;4.00;1.00;;;;;;5066938;28;20224;-83
2023/11/18 06:11:49;;;;;;;40.07;20.90;;;4.00;1.00;;;;;;5075519;28;20229;-82
2023/11/18 06:14:17;;;;;;;43.60;20.83;;;3.80;1.00;;;;;;5073480;28;20202;-83
2023/11/18 06:16:47;;;;;;;46.30;22.23;;;3.80;24.50;;;;;;5075213;28;20297;-82
2023/11/18 06:19:15;;;;;;;52.60;23.83;;;3.90;99.90;;;;;;5073908;28;20729;-83
2023/11/18 06:21:42;;;;;;;44.23;21.67;;;3.80;99.90;;;;;;5074146;28;20601;-83
2023/11/18 06:24:11;;;;;;;44.40;21.13;;;3.70;99.90;;;;;;5076103;28;20195;-82
2023/11/18 06:26:39;;;;;;;43.33;22.47;;;3.60;99.90;;;;;;5069446;28;20308;-83
2023/11/18 06:29:07;;;;;;;48.23;26.23;;;3.50;99.90;;;;;;5080485;28;20213;-82
2023/11/18 06:31:34;;;;;;;47.00;26.60;;;3.50;99.90;;;;;;5081448;28;20218;-83
2023/11/18 06:34:02;;;;;;;44.43;22.57;;;3.60;99.90;;;;;;5079451;28;20202;-83
2023/11/18 06:36:30;;;;;;;44.60;22.07;;;3.50;99.90;;;;;;5066657;28;20234;-82
2023/11/18 06:38:58;;;;;;;43.77;25.13;;;3.50;99.90;;;;;;5065573;28;20203;-81
2023/11/18 06:41:33;;;;;;;46.97;23.50;;;3.70;99.90;;;;;;5064909;28;20213;-83
2023/11/18 06:44:08;;;;;;;46.17;24.77;;;3.50;99.90;;;;;;5068443;28;20198;-83
2023/11/18 06:46:39;;;;;;;42.53;21.80;;;3.50;99.90;;;;;;5068847;28;20221;-83
2023/11/18 06:49:07;;;;;;;47.90;22.13;;;3.40;99.90;;;;;;5076942;28;20194;-83
2023/11/18 06:51:37;;;;;;;41.47;22.27;;;3.40;99.90;;;;;;5077534;28;20221;-85
2023/11/18 06:54:08;;;;;;;44.73;21.73;;;3.40;99.90;;;;;;5061181;28;20684;-83
2023/11/18 06:56:37;;;;;;;42.30;20.27;;;3.30;99.90;;;;;;5077402;28;20701;-83
2023/11/18 06:59:07;;;;;;;45.30;21.80;;;3.40;99.90;;;;;;5077479;28;20731;-83
2023/11/18 07:01:35;;;;;;;39.80;21.00;;;3.40;99.90;;;;;;5065620;28;20233;-82
2023/11/18 07:04:08;;;;;;;38.57;19.50;;;3.50;99.90;;;;;;5056505;28;20199;-82
2023/11/18 07:06:38;;;;;;;40.50;22.53;;;3.40;99.90;;;;;;5058831;28;20269;-83
2023/11/18 07:09:12;;;;;;;41.57;20.87;;;3.40;99.90;;;;;;5065900;28;20266;-83
2023/11/18 07:11:40;;;;;;;41.77;21.63;;;3.50;99.90;;;;;;5057051;28;20214;-83
2023/11/18 07:14:10;;;;;;;38.13;22.57;;;3.50;99.90;;;;;;5069136;28;20202;-83
2023/11/18 07:16:40;;;;;;;37.73;21.73;;;3.50;99.90;;;;;;5077140;28;20689;-84
2023/11/18 07:19:07;;;;;;;41.03;20.77;;;3.50;99.90;;;;;;5078262;28;20212;-81
2023/11/18 07:21:35;;;;;;;44.77;22.27;;;3.50;99.90;;;;;;5076356;28;20214;-81
2023/11/18 07:24:02;;;;;;;43.13;20.87;;;3.60;99.90;;;;;;5076468;28;20203;-84
2023/11/18 07:26:29;;;;;;;42.77;24.40;;;3.80;99.90;;;;;;5077282;28;20222;-81
2023/11/18 07:28:56;;;;;;;41.03;20.23;;;3.90;99.90;;;;;;5065404;28;20256;-82
2023/11/18 07:31:24;;;;;;;43.13;19.67;;;4.00;99.90;;;;;;5056722;28;20293;-82
2023/11/18 07:33:52;;;;;;;44.03;21.70;;;4.10;99.90;;;;;;5064432;28;20198;-83
2023/11/18 07:36:19;;;;;;;40.37;19.60;;;4.10;99.90;;;;;;5076629;28;20658;-81
2023/11/18 07:38:46;;;;;;;40.20;20.37;;;4.10;99.90;;;;;;5055817;28;20214;-82
2023/11/18 07:41:23;;;;;;;41.93;21.07;;;4.10;99.90;;;;;;5072766;28;20203;-84
2023/11/18 07:43:51;;;;;;;39.47;23.13;;;4.20;99.90;;;;;;5073558;28;20300;-84
2023/11/18 07:46:18;;;;;;;38.27;19.30;;;4.20;99.90;;;;;;5075433;28;20708;-84
2023/11/18 07:48:46;;;;;;;42.90;24.97;;;4.30;99.90;;;;;;5077049;28;20210;-83
2023/11/18 07:51:14;;;;;;;39.87;20.17;;;4.30;99.90;;;;;;5076963;28;20214;-83
2023/11/18 07:53:42;;;;;;;38.97;20.13;;;4.20;99.90;;;;;;5077899;28;20209;-83
2023/11/18 07:56:12;;;;;;;42.93;21.20;;;4.30;99.90;;;;;;5078188;28;20218;-83
2023/11/18 07:58:41;;;;;;;37.43;19.37;;;4.40;99.90;;;;;;5078099;28;20351;-84
2023/11/18 08:01:08;;;;;;;37.80;20.50;;;4.40;99.90;;;;;;5067335;28;20207;-83
2023/11/18 08:03:37;;;;;;;39.97;21.27;;;4.40;99.90;;;;;;5073912;28;20270;-83
2023/11/18 08:06:06;;;;;;;37.23;20.43;;;4.50;99.90;;;;;;5077406;28;20244;-83
2023/11/18 08:08:34;;;;;;;39.43;20.57;;;4.50;99.90;;;;;;5066863;28;20203;-83
2023/11/18 08:11:00;;;;;;;42.13;20.73;;;4.50;99.90;;;;;;5057447;28;20217;-83
2023/11/18 08:13:27;;;;;;;47.00;22.77;;;4.60;99.90;;;;;;5057319;28;20214;-84
2023/11/18 08:15:54;;;;;;;43.73;21.63;;;4.70;99.90;;;;;;5077587;28;20633;-83
2023/11/18 08:18:23;;;;;;;41.57;20.83;;;4.90;99.90;;;;;;5069756;28;20292;-84
2023/11/18 08:20:50;;;;;;;44.10;22.63;;;5.00;99.90;;;;;;5067365;28;20275;-85
2023/11/18 08:23:19;;;;;;;42.40;21.27;;;5.10;99.90;;;;;;5077984;28;20206;-85
2023/11/18 08:25:46;;;;;;;45.13;21.13;;;5.00;99.90;;;;;;5079790;28;20210;-83
2023/11/18 08:28:13;;;;;;;44.67;21.47;;;5.10;1.00;;;;;;5073490;28;20222;-84
2023/11/18 08:30:40;;;;;;;43.87;20.10;;;5.00;1.00;;;;;;5076909;28;20210;-82
2023/11/18 08:33:08;;;;;;;39.63;20.27;;;5.10;1.00;;;;;;5056102;28;20226;-84
2023/11/18 08:35:34;;;;;;;42.20;21.33;;;5.10;1.00;;;;;;5056412;28;20214;-82
2023/11/18 08:38:03;;;;;;;42.40;21.30;;;5.20;1.00;;;;;;5056212;28;20318;-83
2023/11/18 08:40:32;;;;;;;42.60;20.53;;;5.20;99.90;;;;;;5056245;28;20222;-82
2023/11/18 08:42:59;;;;;;;39.93;20.43;;;5.30;99.90;;;;;;5061672;28;20749;-83
2023/11/18 08:45:29;;;;;;;40.27;19.10;;;5.30;1.00;;;;;;5071542;28;20202;-82
2023/11/18 08:47:56;;;;;;;40.77;20.47;;;5.30;1.00;;;;;;5068480;28;20226;-83
2023/11/18 08:50:24;;;;;;;43.30;21.50;;;5.40;1.00;;;;;;5075451;28;20255;-82
2023/11/18 08:52:57;;;;;;;44.17;21.23;;;5.60;1.00;;;;;;5075344;28;20214;-83
2023/11/18 08:55:34;;;;;;;37.90;19.50;;;5.80;1.00;;;;;;5075677;28;20232;-82
2023/11/18 08:58:03;;;;;;;39.10;21.40;;;5.80;99.90;;;;;;5074123;28;20222;-82
2023/11/18 09:00:48;;;;;;;41.53;19.90;;;5.70;1.00;;;;;;5075336;28;20210;-82
2023/11/18 09:03:24;;;;;;;42.13;19.60;;;5.70;1.00;;;;;;5055632;28;20201;-83
2023/11/18 09:05:57;;;;;;;43.77;20.60;;;5.70;1.00;;;;;;5055260;28;20193;-85
2023/11/18 09:08:29;;;;;;;41.03;20.67;;;5.80;99.90;;;;;;5063857;28;20230;-82
2023/11/18 09:10:57;;;;;;;41.43;19.63;;;5.80;99.90;;;;;;5074803;28;20214;-84
2023/11/18 09:13:28;;;;;;;39.53;18.00;;;6.00;99.90;;;;;;5074835;28;20202;-82
2023/11/18 09:15:57;;;;;;;42.80;18.37;;;6.00;1.00;;;;;;5074951;28;20646;-81
2023/11/18 09:18:24;;;;;;;45.13;19.37;;;5.90;1.00;;;;;;5073677;28;20276;-83
2023/11/18 09:20:52;;;;;;;45.27;21.77;;;5.80;1.00;;;;;;5073649;28;20206;-82
2023/11/18 09:23:19;;;;;;;38.47;18.73;;;6.00;1.00;;;;;;5070553;28;20210;-84
2023/11/18 09:25:47;;;;;;;36.93;17.67;;;6.20;1.00;;;;;;5074691;28;20848;-84
2023/11/18 09:28:15;;;;;;;38.53;18.20;;;6.20;99.90;;;;;;5074906;28;20721;-83
2023/11/18 09:30:49;;;;;;;38.13;17.53;;;6.10;51.10;;;;;;5062451;28;20298;-84
2023/11/18 09:33:25;;;;;;;33.67;16.50;;;6.10;1.00;;;;;;5060271;28;20704;-84
2023/11/18 09:35:55;;;;;;;38.50;16.80;;;6.00;1.00;;;;;;5060061;28;20209;-85
2023/11/18 09:38:23;;;;;;;34.30;16.57;;;6.30;1.00;;;;;;5075874;28;20222;-83
2023/11/18 09:40:53;;;;;;;37.63;17.50;;;6.30;1.00;;;;;;5075481;28;20217;-83
2023/11/18 09:43:21;;;;;;;37.70;17.87;;;6.40;1.00;;;;;;5058883;28;20230;-82
2023/11/18 09:45:54;;;;;;;39.67;18.10;;;6.50;1.00;;;;;;5064176;28;20233;-81
2023/11/18 09:48:25;;;;;;;35.67;17.50;;;6.50;99.90;;;;;;5055969;28;20246;-82
2023/11/18 09:50:53;;;;;;;37.30;17.80;;;6.50;99.90;;;;;;5056016;28;20611;-81
2023/11/18 09:53:25;;;;;;;34.67;16.23;;;6.50;60.30;;;;;;5056148;28;20237;-81
2023/11/18 09:55:59;;;;;;;33.47;17.03;;;6.60;1.00;;;;;;5053309;28;20200;-84
2023/11/18 09:58:34;;;;;;;32.10;16.00;;;6.60;1.00;;;;;;5067214;28;20312;-83
2023/11/18 10:01:04;;;;;;;31.60;15.33;;;6.70;1.00;;;;;;5074040;28;20195;-84
2023/11/18 10:03:35;;;;;;;33.63;14.60;;;6.80;1.00;;;;;;5075856;28;20190;-82
2023/11/18 10:06:05;;;;;;;26.93;13.43;;;6.90;1.00;;;;;;5079221;28;20296;-82
2023/11/18 10:08:32;;;;;;;28.40;13.97;;;6.90;1.00;;;;;;5079354;28;20211;-83
2023/11/18 10:11:08;;;;;;;21.20;9.80;;;6.90;99.90;;;;;;5078344;28;20301;-82
2023/11/18 10:13:40;;;;;;;14.07;7.33;;;7.10;99.90;;;;;;5069566;28;20195;-82
2023/11/18 10:16:09;;;;;;;16.73;7.33;;;7.40;1.00;;;;;;5062204;28;20224;-83
2023/11/18 10:18:36;;;;;;;14.83;7.10;;;7.60;1.00;;;;;;5069149;28;20229;-82
2023/11/18 10:21:07;;;;;;;12.80;6.00;;;7.80;1.00;;;;;;5078300;28;20209;-83
2023/11/18 10:23:37;;;;;;;17.37;6.57;;;8.10;1.00;;;;;;5078778;28;20247;-83
2023/11/18 10:26:07;;;;;;;26.60;15.30;;;8.00;99.90;;;;;;5079295;28;20202;-83
2023/11/18 10:28:37;;;;;;;11.47;6.33;;;8.20;99.90;;;;;;5079340;28;20566;-83
2023/11/18 10:31:06;;;;;;;11.83;6.20;;;8.10;99.90;;;;;;5077378;28;20564;-83
2023/11/18 10:33:37;;;;;;;14.20;6.67;;;8.40;99.90;;;;;;5074788;28;20198;-83
2023/11/18 10:36:06;;;;;;;12.00;5.93;;;8.70;99.90;;;;;;5079024;28;20191;-83
2023/11/18 10:38:43;;;;;;;12.83;6.40;;;8.90;99.90;;;;;;5078587;28;20228;-82
2023/11/18 10:41:12;;;;;;;14.73;6.87;;;8.70;1.00;;;;;;5078461;28;20256;-83
2023/11/18 10:43:41;;;;;;;13.80;6.47;;;9.00;1.00;;;;;;5078996;28;20206;-83
2023/11/18 10:46:13;;;;;;;14.13;7.30;;;8.70;1.00;;;;;;5078465;28;20297;-82
2023/11/18 10:48:43;;;;;;;16.70;6.80;;;8.60;1.00;;;;;;5078798;28;20305;-82
2023/11/18 10:51:12;;;;;;;13.57;6.53;;;8.50;1.00;;;;;;5079218;28;20707;-82
2023/11/18 10:53:42;;;;;;;14.20;6.63;;;8.50;1.00;;;;;;5078347;28;20201;-81
2023/11/18 10:56:19;;;;;;;16.13;6.90;;;8.50;1.00;;;;;;5058194;28;20237;-83
2023/11/18 10:58:46;;;;;;;13.10;6.73;;;8.40;1.00;;;;;;5069834;28;20225;-83
2023/11/18 11:01:14;;;;;;;14.50;6.87;;;8.30;1.00;;;;;;5077918;28;20569;-83
2023/11/18 11:03:56;;;;;;;13.80;6.40;;;8.30;1.00;;;;;;5077813;28;20678;-83
2023/11/18 11:06:24;;;;;;;16.70;6.73;;;8.20;1.00;;;;;;5076277;28;20540;-83
2023/11/18 11:08:51;;;;;;;14.53;6.83;;;8.10;1.00;;;;;;5076851;28;20267;-83
2023/11/18 11:11:21;;;;;;;12.23;5.53;;;8.20;1.00;;;;;;5068096;28;20253;-83
2023/11/18 11:13:50;;;;;;;14.17;6.90;;;8.30;1.00;;;;;;5055547;28;20203;-83
2023/11/18 11:16:20;;;;;;;11.90;6.20;;;8.40;1.00;;;;;;5056653;28;20210;-83
2023/11/18 11:18:53;;;;;;;12.03;5.27;;;8.20;1.00;;;;;;5058617;28;20246;-83
2023/11/18 11:21:28;;;;;;;9.97;5.57;;;8.40;1.00;;;;;;5074009;28;20259;-83
2023/11/18 11:23:59;;;;;;;13.10;6.10;;;8.30;1.00;;;;;;5078282;28;20364;-83
2023/11/18 11:26:40;;;;;;;11.97;6.43;;;8.20;1.00;;;;;;5078718;28;20709;-81
2023/11/18 11:29:28;;;;;;;11.40;5.50;;;8.20;1.00;;;;;;5069878;28;20212;-83
2023/11/18 11:32:12;;;;;;;15.57;5.97;;;8.20;1.00;;;;;;5064029;28;20242;-82
2023/11/18 11:34:42;;;;;;;11.63;6.00;;;8.20;1.00;;;;;;5074342;28;20222;-82
2023/11/18 11:37:13;;;;;;;11.37;6.33;;;8.10;1.00;;;;;;5078148;28;20667;-82
2023/11/18 11:39:46;;;;;;;11.23;6.33;;;8.10;1.00;;;;;;5078400;28;20218;-82
2023/11/18 11:42:17;;;;;;;14.70;6.70;;;8.10;1.00;;;;;;5078316;28;20236;-83
2023/11/18 11:44:46;;;;;;;11.00;6.27;;;8.10;1.00;;;;;;5077580;28;20233;-81
2023/11/18 11:47:15;;;;;;;15.23;6.10;;;8.10;1.00;;;;;;5076149;28;20749;-82
2023/11/18 11:49:55;;;;;;;13.23;6.20;;;8.10;1.00;;;;;;5075701;28;20211;-81
2023/11/18 11:52:30;;;;;;;12.80;6.03;;;7.90;1.00;;;;;;5076041;28;20206;-81
2023/11/18 11:55:06;;;;;;;11.83;5.47;;;8.00;1.00;;;;;;5075499;28;20206;-81
2023/11/18 11:57:36;;;;;;;12.87;5.67;;;8.00;1.00;;;;;;5075370;28;20226;-81
2023/11/18 12:00:14;;;;;;;10.60;6.10;;;7.90;1.00;;;;;;5075528;28;20208;-80
2023/11/18 12:02:49;;;;;;;11.37;5.83;;;7.90;1.00;;;;;;5076353;28;20677;-80
2023/11/18 12:05:18;;;;;;;10.57;5.83;;;8.00;1.00;;;;;;5075084;28;20206;-83
2023/11/18 12:07:48;;;;;;;13.17;6.30;;;7.90;1.00;;;;;;5075563;28;20222;-83
2023/11/18 12:10:21;;;;;;;10.87;6.20;;;8.00;1.00;;;;;;5074999;28;20203;-82
2023/11/18 12:12:48;;;;;;;11.03;6.17;;;7.90;1.00;;;;;;5075622;28;20206;-83
2023/11/18 12:15:17;;;;;;;13.20;7.60;;;7.90;1.00;;;;;;5063421;28;20278;-83
2023/11/18 12:18:14;;;;;;;12.30;6.67;;;7.90;1.00;;;;;;5056164;28;20628;-83
2023/11/18 12:20:44;;;;;;;11.63;6.00;;;7.90;1.00;;;;;;5056220;28;20214;-83
2023/11/18 12:23:15;;;;;;;9.00;5.60;;;7.90;1.00;;;;;;5067114;28;20273;-82
2023/11/18 12:25:42;;;;;;;13.73;6.17;;;7.80;1.00;;;;;;5058873;28;20234;-82
2023/11/18 12:28:15;;;;;;;10.60;5.77;;;7.80;1.00;;;;;;5076412;28;20305;-82
2023/11/18 12:34:02;;;;;;;11.23;6.13;;;7.90;1.00;;;;;;5062868;28;20206;-82
2023/11/18 12:36:57;;;;;;;9.07;5.47;;;7.90;1.00;;;;;;5057356;28;20234;-82
2023/11/18 12:39:52;;;;;;;13.30;6.07;;;7.90;1.00;;;;;;5053960;28;20227;-82
2023/11/18 12:42:52;;;;;;;11.27;6.53;;;8.00;1.00;;;;;;5061991;28;20694;-83
2023/11/18 12:45:55;;;;;;;13.13;6.30;;;8.00;1.00;;;;;;5074882;28;20202;-83
2023/11/18 12:48:26;;;;;;;10.30;6.13;;;7.90;1.00;;;;;;5075056;28;20232;-83
2023/11/18 12:50:55;;;;;;;11.07;6.03;;;7.90;1.00;;;;;;5074405;28;20206;-83
2023/11/18 12:53:25;;;;;;;10.27;6.33;;;8.00;1.00;;;;;;5075405;28;20449;-84
2023/11/18 12:55:55;;;;;;;10.43;5.73;;;7.90;1.00;;;;;;5074497;28;20297;-84
2023/11/18 12:58:23;;;;;;;12.40;6.63;;;8.00;1.00;;;;;;5075023;28;20774;-83